createdAt,value
2018-03-07T00:00:16.726Z,85.08
2018-03-07T00:01:26.902Z,85.17
2018-03-07T00:02:37.137Z,85.08
2018-03-07T00:03:47.309Z,85.17
2018-03-07T00:04:57.532Z,85.27
2018-03-07T00:06:07.845Z,84.99
2018-03-07T00:07:18.149Z,85.17
2018-03-07T00:08:28.359Z,84.89
2018-03-07T00:09:38.227Z,85.46
2018-03-07T00:10:48.385Z,85.46
2018-03-07T00:11:58.528Z,85.27
2018-03-07T00:13:08.673Z,85.46
2018-03-07T00:14:18.820Z,84.99
2018-03-07T00:15:29.027Z,85.55
2018-03-07T00:16:39.248Z,85.08
2018-03-07T00:17:49.388Z,85.27
2018-03-07T00:18:59.829Z,85.36
2018-03-07T00:20:10.026Z,85.17
2018-03-07T00:21:20.168Z,85.36
2018-03-07T00:22:30.355Z,85.55
2018-03-07T00:23:40.627Z,85.46
2018-03-07T00:24:50.965Z,85.74
2018-03-07T00:26:01.155Z,85.65
2018-03-07T00:27:11.366Z,85.55
2018-03-07T00:28:21.618Z,85.55
2018-03-07T00:29:31.816Z,85.27
2018-03-07T00:30:41.962Z,85.17
2018-03-07T00:31:52.077Z,85.46
2018-03-07T00:33:03.190Z,85.27
2018-03-07T00:34:13.309Z,85.55
2018-03-07T00:35:23.448Z,85.36
2018-03-07T00:36:33.572Z,85.27
2018-03-07T00:37:43.762Z,85.17
2018-03-07T00:38:53.879Z,85.27
2018-03-07T00:40:03.738Z,85.84
2018-03-07T00:41:13.975Z,85.84
2018-03-07T00:42:24.106Z,85.46
2018-03-07T00:43:34.227Z,85.36
2018-03-07T00:44:43.846Z,85.36
2018-03-07T00:45:53.735Z,85.36
2018-03-07T00:47:04.188Z,85.55
2018-03-07T00:48:14.062Z,85.74
2018-03-07T00:49:24.232Z,85.84
2018-03-07T00:50:33.879Z,85.55
2018-03-07T00:51:43.774Z,85.36
2018-03-07T00:52:53.657Z,85.93
2018-03-07T00:54:03.768Z,85.84
2018-03-07T00:55:13.889Z,85.46
2018-03-07T00:56:24.028Z,85.55
2018-03-07T00:57:34.181Z,85.93
2018-03-07T00:58:44.328Z,85.46
2018-03-07T00:59:54.499Z,85.74
2018-03-07T01:01:04.634Z,85.46
2018-03-07T01:02:14.750Z,85.46
2018-03-07T01:03:24.987Z,85.74
2018-03-07T01:04:35.110Z,85.46
2018-03-07T01:05:45.271Z,86.12
2018-03-07T01:06:55.395Z,86.03
2018-03-07T01:08:05.698Z,86.03
2018-03-07T01:09:15.961Z,85.74
2018-03-07T01:10:26.236Z,86.03
2018-03-07T01:11:36.497Z,85.84
2018-03-07T01:12:46.674Z,85.84
2018-03-07T01:13:56.823Z,85.93
2018-03-07T01:15:07.038Z,85.93
2018-03-07T01:16:17.215Z,86.41
2018-03-07T01:17:27.448Z,86.22
2018-03-07T01:18:37.744Z,86.22
2018-03-07T01:19:47.897Z,86.03
2018-03-07T01:20:58.069Z,86.5
2018-03-07T01:22:08.184Z,85.84
2018-03-07T01:23:18.320Z,86.03
2018-03-07T01:24:28.446Z,86.03
2018-03-07T01:25:38.561Z,86.5
2018-03-07T01:26:48.723Z,86.22
2018-03-07T01:27:58.897Z,86.22
2018-03-07T01:29:09.251Z,85.93
2018-03-07T01:30:19.394Z,86.12
2018-03-07T01:31:29.646Z,85.93
2018-03-07T01:32:39.902Z,85.65
2018-03-07T01:33:50.133Z,86.31
2018-03-07T01:35:00.325Z,86.5
2018-03-07T01:36:10.448Z,86.22
2018-03-07T01:37:20.628Z,86.03
2018-03-07T01:38:31.024Z,86.22
2018-03-07T01:39:41.235Z,86.22
2018-03-07T01:40:51.393Z,86.22
2018-03-07T01:42:01.693Z,86.31
2018-03-07T01:43:11.876Z,86.22
2018-03-07T01:44:22.027Z,86.22
2018-03-07T01:45:31.802Z,86.03
2018-03-07T01:46:42.165Z,86.22
2018-03-07T01:47:52.319Z,86.22
2018-03-07T01:49:02.596Z,86.12
2018-03-07T01:50:12.782Z,86.03
2018-03-07T01:51:23.009Z,86.03
2018-03-07T01:52:33.148Z,86.12
2018-03-07T01:53:43.286Z,86.03
2018-03-07T01:54:53.481Z,86.22
2018-03-07T01:56:03.855Z,86.03
2018-03-07T01:57:14.196Z,86.03
2018-03-07T01:58:24.392Z,86.12
2018-03-07T01:59:34.594Z,86.5
2018-03-07T02:00:44.804Z,86.5
2018-03-07T02:01:54.940Z,86.31
2018-03-07T02:03:05.178Z,86.22
2018-03-07T02:04:15.315Z,86.6
2018-03-07T02:05:25.462Z,86.41
2018-03-07T02:06:35.583Z,86.5
2018-03-07T02:07:45.583Z,86.41
2018-03-07T02:08:55.763Z,86.5
2018-03-07T02:10:05.633Z,86.31
2018-03-07T02:11:15.750Z,86.22
2018-03-07T02:12:25.951Z,86.5
2018-03-07T02:13:36.179Z,86.5
2018-03-07T02:14:46.369Z,86.41
2018-03-07T02:15:55.979Z,86.31
2018-03-07T02:17:05.900Z,86.41
2018-03-07T02:18:16.189Z,86.41
2018-03-07T02:19:26.044Z,86.22
2018-03-07T02:20:36.230Z,86.41
2018-03-07T02:21:46.359Z,86.69
2018-03-07T02:22:56.227Z,86.69
2018-03-07T02:24:06.367Z,86.79
2018-03-07T02:25:16.252Z,86.69
2018-03-07T02:26:25.770Z,86.88
2018-03-07T02:27:35.933Z,86.88
2018-03-07T02:28:46.106Z,86.79
2018-03-07T02:29:55.996Z,86.79
2018-03-07T02:31:05.848Z,86.88
2018-03-07T02:32:15.507Z,86.79
2018-03-07T02:33:25.669Z,86.88
2018-03-07T02:34:35.537Z,86.88
2018-03-07T02:35:45.675Z,86.69
2018-03-07T02:36:55.537Z,86.69
2018-03-07T02:38:05.694Z,86.69
2018-03-07T02:39:15.739Z,86.79
2018-03-07T02:40:25.977Z,86.69
2018-03-07T02:41:36.121Z,86.6
2018-03-07T02:42:46.040Z,86.79
2018-03-07T02:43:56.184Z,86.69
2018-03-07T02:45:06.074Z,86.79
2018-03-07T02:46:15.824Z,86.79
2018-03-07T02:47:25.604Z,86.88
2018-03-07T02:48:35.726Z,87.35
2018-03-07T02:49:45.890Z,86.98
2018-03-07T02:50:56.005Z,86.88
2018-03-07T02:52:06.159Z,86.88
2018-03-07T02:53:16.513Z,87.26
2018-03-07T02:54:26.405Z,87.26
2018-03-07T02:55:36.527Z,87.35
2018-03-07T02:56:46.413Z,87.16
2018-03-07T02:57:56.560Z,86.98
2018-03-07T02:59:06.708Z,86.88
2018-03-07T03:00:16.831Z,86.69
2018-03-07T03:01:27.075Z,86.69
2018-03-07T03:02:37.230Z,86.79
2018-03-07T03:03:47.398Z,86.88
2018-03-07T03:04:57.729Z,86.88
2018-03-07T03:06:07.901Z,86.88
2018-03-07T03:07:18.164Z,86.69
2018-03-07T03:08:28.289Z,87.07
2018-03-07T03:09:38.476Z,86.98
2018-03-07T03:10:48.365Z,86.88
2018-03-07T03:11:58.560Z,87.35
2018-03-07T03:13:08.768Z,87.26
2018-03-07T03:14:18.940Z,87.16
2018-03-07T03:15:29.116Z,87.35
2018-03-07T03:16:39.453Z,87.26
2018-03-07T03:17:49.585Z,87.26
2018-03-07T03:18:59.759Z,87.45
2018-03-07T03:20:09.884Z,87.35
2018-03-07T03:21:19.774Z,87.26
2018-03-07T03:22:30.050Z,87.16
2018-03-07T03:23:40.180Z,87.16
2018-03-07T03:24:50.284Z,87.07
2018-03-07T03:26:00.452Z,87.35
2018-03-07T03:27:10.582Z,87.07
2018-03-07T03:28:20.711Z,87.26
2018-03-07T03:29:30.996Z,87.16
2018-03-07T03:30:41.189Z,87.26
2018-03-07T03:31:51.358Z,87.26
2018-03-07T03:33:01.534Z,87.16
2018-03-07T03:34:11.410Z,87.45
2018-03-07T03:35:21.550Z,87.26
2018-03-07T03:36:31.702Z,87.07
2018-03-07T03:37:41.954Z,87.35
2018-03-07T03:38:52.135Z,87.26
2018-03-07T03:40:02.352Z,87.35
2018-03-07T03:41:12.134Z,87.26
2018-03-07T03:42:22.073Z,87.16
2018-03-07T03:43:32.201Z,87.35
2018-03-07T03:44:42.355Z,87.26
2018-03-07T03:45:52.483Z,87.26
2018-03-07T03:47:02.643Z,87.35
2018-03-07T03:48:12.751Z,87.35
2018-03-07T03:49:22.867Z,87.26
2018-03-07T03:50:33.011Z,87.35
2018-03-07T03:51:43.212Z,87.26
2018-03-07T03:52:53.340Z,87.26
2018-03-07T03:54:03.559Z,87.35
2018-03-07T03:55:13.828Z,87.35
2018-03-07T03:56:24.010Z,86.79
2018-03-07T03:57:34.306Z,87.16
2018-03-07T03:58:44.458Z,87.83
2018-03-07T03:59:54.744Z,88.21
2018-03-07T04:01:04.995Z,87.35
2018-03-07T04:02:14.878Z,87.64
2018-03-07T04:03:25.025Z,88.02
2018-03-07T04:04:35.171Z,87.54
2018-03-07T04:05:45.016Z,87.07
2018-03-07T04:06:55.216Z,87.35
2018-03-07T04:08:05.422Z,87.45
2018-03-07T04:09:15.537Z,87.26
2018-03-07T04:10:25.689Z,87.16
2018-03-07T04:11:35.908Z,87.16
2018-03-07T04:12:46.035Z,87.07
2018-03-07T04:13:56.175Z,87.45
2018-03-07T04:15:06.293Z,87.16
2018-03-07T04:16:16.402Z,87.16
2018-03-07T04:17:26.614Z,87.35
2018-03-07T04:18:36.977Z,86.98
2018-03-07T04:19:47.137Z,87.35
2018-03-07T04:20:57.300Z,87.26
2018-03-07T04:22:07.421Z,87.35
2018-03-07T04:23:17.819Z,87.45
2018-03-07T04:24:27.991Z,87.26
2018-03-07T04:25:38.145Z,87.26
2018-03-07T04:26:48.364Z,87.26
2018-03-07T04:27:58.229Z,87.16
2018-03-07T04:29:08.393Z,87.54
2018-03-07T04:30:18.579Z,87.45
2018-03-07T04:31:28.866Z,87.35
2018-03-07T04:32:39.031Z,87.26
2018-03-07T04:33:49.294Z,87.35
2018-03-07T04:34:59.410Z,87.35
2018-03-07T04:36:09.282Z,87.45
2018-03-07T04:37:19.405Z,87.35
2018-03-07T04:38:29.597Z,87.35
2018-03-07T04:39:40.006Z,87.16
2018-03-07T04:40:50.157Z,87.45
2018-03-07T04:42:00.285Z,87.26
2018-03-07T04:43:10.242Z,87.16
2018-03-07T04:44:20.362Z,87.35
2018-03-07T04:45:30.549Z,87.26
2018-03-07T04:46:40.732Z,87.16
2018-03-07T04:47:50.981Z,87.26
2018-03-07T04:49:00.883Z,87.16
2018-03-07T04:50:11.013Z,87.16
2018-03-07T04:51:21.172Z,87.16
2018-03-07T04:52:31.311Z,87.26
2018-03-07T04:53:41.147Z,86.79
2018-03-07T04:54:50.390Z,86.6
2018-03-07T04:56:00.270Z,86.79
2018-03-07T04:57:10.279Z,87.35
2018-03-07T04:58:20.454Z,87.35
2018-03-07T04:59:30.569Z,87.35
2018-03-07T05:00:40.697Z,87.07
2018-03-07T05:01:50.864Z,87.26
2018-03-07T05:03:00.978Z,87.35
2018-03-07T05:04:11.138Z,87.26
2018-03-07T05:05:21.340Z,87.16
2018-03-07T05:06:31.242Z,86.98
2018-03-07T05:07:41.428Z,87.64
2018-03-07T05:08:51.606Z,87.26
2018-03-07T05:10:01.768Z,87.16
2018-03-07T05:11:11.952Z,87.45
2018-03-07T05:12:21.817Z,87.16
2018-03-07T05:13:31.946Z,87.54
2018-03-07T05:14:42.076Z,87.54
2018-03-07T05:15:52.256Z,87.92
2018-03-07T05:17:02.123Z,87.92
2018-03-07T05:18:12.267Z,87.92
2018-03-07T05:19:22.476Z,87.83
2018-03-07T05:20:32.694Z,87.83
2018-03-07T05:21:42.804Z,87.83
2018-03-07T05:22:52.974Z,88.02
2018-03-07T05:24:03.128Z,87.64
2018-03-07T05:25:13.303Z,87.16
2018-03-07T05:26:23.189Z,87.54
2018-03-07T05:27:33.329Z,87.54
2018-03-07T05:28:43.454Z,87.45
2018-03-07T05:29:53.559Z,87.35
2018-03-07T05:31:03.817Z,87.35
2018-03-07T05:32:13.674Z,87.54
2018-03-07T05:33:23.806Z,88.02
2018-03-07T05:34:33.697Z,87.83
2018-03-07T05:35:43.810Z,87.54
2018-03-07T05:36:54.152Z,87.73
2018-03-07T05:38:04.065Z,87.54
2018-03-07T05:39:14.243Z,87.83
2018-03-07T05:40:24.433Z,87.83
2018-03-07T05:41:34.606Z,87.83
2018-03-07T05:42:44.593Z,87.83
2018-03-07T05:43:54.864Z,87.83
2018-03-07T05:45:05.048Z,87.83
2018-03-07T05:46:15.236Z,87.73
2018-03-07T05:47:25.400Z,87.73
2018-03-07T05:48:35.604Z,87.54
2018-03-07T05:49:45.766Z,87.45
2018-03-07T05:50:55.997Z,87.73
2018-03-07T05:52:06.153Z,87.64
2018-03-07T05:53:16.589Z,87.73
2018-03-07T05:54:26.836Z,87.54
2018-03-07T05:55:36.714Z,87.54
2018-03-07T05:56:46.476Z,87.73
2018-03-07T05:57:56.626Z,87.54
2018-03-07T05:59:06.753Z,87.83
2018-03-07T06:00:16.911Z,87.73
2018-03-07T06:01:27.208Z,87.73
2018-03-07T06:02:37.383Z,87.54
2018-03-07T06:03:47.509Z,87.83
2018-03-07T06:04:57.422Z,87.92
2018-03-07T06:06:07.553Z,87.73
2018-03-07T06:07:17.730Z,88.11
2018-03-07T06:08:27.908Z,88.02
2018-03-07T06:09:37.773Z,88.02
2018-03-07T06:10:47.939Z,88.11
2018-03-07T06:11:57.724Z,87.83
2018-03-07T06:13:07.845Z,87.73
2018-03-07T06:14:17.989Z,88.02
2018-03-07T06:15:28.252Z,88.11
2018-03-07T06:16:38.191Z,87.73
2018-03-07T06:17:48.335Z,87.73
2018-03-07T06:18:58.461Z,87.83
2018-03-07T06:20:08.658Z,87.73
2018-03-07T06:21:19.055Z,87.73
2018-03-07T06:22:29.210Z,87.73
2018-03-07T06:23:39.090Z,87.83
2018-03-07T06:24:48.965Z,87.64
2018-03-07T06:25:59.131Z,87.54
2018-03-07T06:27:09.309Z,87.64
2018-03-07T06:28:19.450Z,87.83
2018-03-07T06:29:29.577Z,88.02
2018-03-07T06:30:39.752Z,88.02
2018-03-07T06:31:49.898Z,87.73
2018-03-07T06:33:00.082Z,87.73
2018-03-07T06:34:10.250Z,87.73
2018-03-07T06:35:20.571Z,87.64
2018-03-07T06:36:30.879Z,87.54
2018-03-07T06:37:41.339Z,87.64
2018-03-07T06:38:51.495Z,87.83
2018-03-07T06:40:01.606Z,88.3
2018-03-07T06:41:11.760Z,88.49
2018-03-07T06:42:21.899Z,87.92
2018-03-07T06:43:32.040Z,87.73
2018-03-07T06:44:42.274Z,87.73
2018-03-07T06:45:51.990Z,88.02
2018-03-07T06:47:01.855Z,88.02
2018-03-07T06:48:11.969Z,88.11
2018-03-07T06:49:22.199Z,88.11
2018-03-07T06:50:32.703Z,88.02
2018-03-07T06:51:42.576Z,87.73
2018-03-07T06:52:52.723Z,87.92
2018-03-07T06:54:02.260Z,88.21
2018-03-07T06:55:12.445Z,87.83
2018-03-07T06:56:22.363Z,87.92
2018-03-07T06:57:32.246Z,87.92
2018-03-07T06:58:41.923Z,88.21
2018-03-07T06:59:51.571Z,88.11
2018-03-07T07:01:01.707Z,87.92
2018-03-07T07:02:11.919Z,88.02
2018-03-07T07:03:22.069Z,87.83
2018-03-07T07:04:32.265Z,87.83
2018-03-07T07:05:42.489Z,88.11
2018-03-07T07:06:52.677Z,88.11
2018-03-07T07:08:02.834Z,88.11
2018-03-07T07:09:12.682Z,87.83
2018-03-07T07:10:22.828Z,87.83
2018-03-07T07:11:32.996Z,87.73
2018-03-07T07:12:43.309Z,87.64
2018-03-07T07:13:53.547Z,87.83
2018-03-07T07:15:03.704Z,87.83
2018-03-07T07:16:13.352Z,87.64
2018-03-07T07:17:23.786Z,87.64
2018-03-07T07:18:33.656Z,87.73
2018-03-07T07:19:43.787Z,87.54
2018-03-07T07:20:53.941Z,87.92
2018-03-07T07:22:03.872Z,87.83
2018-03-07T07:23:14.075Z,87.45
2018-03-07T07:24:24.234Z,88.02
2018-03-07T07:25:34.445Z,87.35
2018-03-07T07:26:44.593Z,87.54
2018-03-07T07:27:54.846Z,87.54
2018-03-07T07:29:05.008Z,87.35
2018-03-07T07:30:15.167Z,87.45
2018-03-07T07:31:25.477Z,87.35
2018-03-07T07:32:35.835Z,87.35
2018-03-07T07:33:46.297Z,87.16
2018-03-07T07:34:56.745Z,87.26
2018-03-07T07:36:06.354Z,87.45
2018-03-07T07:37:15.964Z,87.83
2018-03-07T07:38:25.678Z,87.35
2018-03-07T07:39:35.834Z,87.54
2018-03-07T07:40:46.068Z,87.35
2018-03-07T07:41:56.267Z,87.35
2018-03-07T07:43:06.201Z,87.54
2018-03-07T07:44:16.442Z,87.35
2018-03-07T07:45:26.606Z,87.45
2018-03-07T07:46:36.759Z,87.16
2018-03-07T07:47:46.922Z,87.35
2018-03-07T07:48:57.079Z,87.16
2018-03-07T07:50:07.237Z,87.16
2018-03-07T07:51:17.464Z,86.98
2018-03-07T07:52:27.621Z,87.35
2018-03-07T07:53:38.167Z,87.45
2018-03-07T07:54:48.335Z,87.35
2018-03-07T07:55:58.517Z,87.21
2018-03-07T07:57:08.890Z,87.21
2018-03-07T07:58:19.087Z,87.26
2018-03-07T07:59:29.225Z,86.79
2018-03-07T08:00:39.411Z,86.88
2018-03-07T08:01:49.372Z,86.79
2018-03-07T08:02:59.509Z,87.3
2018-03-07T08:04:09.710Z,87.16
2018-03-07T08:05:19.207Z,86.79
2018-03-07T08:06:28.973Z,87.07
2018-03-07T08:07:38.955Z,87.12
2018-03-07T08:08:49.138Z,87.12
2018-03-07T08:09:59.365Z,87.12
2018-03-07T08:11:08.802Z,86.83
2018-03-07T08:12:18.957Z,87.3
2018-03-07T08:13:29.136Z,86.83
2018-03-07T08:14:39.024Z,87.12
2018-03-07T08:15:49.153Z,87.12
2018-03-07T08:16:59.323Z,87.21
2018-03-07T08:18:09.345Z,87.49
2018-03-07T08:19:19.870Z,87.02
2018-03-07T08:20:30.045Z,87.4
2018-03-07T08:21:40.204Z,87.21
2018-03-07T08:22:50.091Z,87.12
2018-03-07T08:24:00.215Z,87.49
2018-03-07T08:25:10.216Z,87.21
2018-03-07T08:26:20.485Z,87.12
2018-03-07T08:27:30.388Z,87.21
2018-03-07T08:28:40.593Z,87.12
2018-03-07T08:29:50.765Z,87.21
2018-03-07T08:31:00.923Z,87.21
2018-03-07T08:32:11.149Z,87.21
2018-03-07T08:33:21.373Z,86.83
2018-03-07T08:34:31.567Z,87.59
2018-03-07T08:35:41.805Z,87.12
2018-03-07T08:36:52.088Z,87.02
2018-03-07T08:38:02.222Z,86.74
2018-03-07T08:39:12.403Z,86.93
2018-03-07T08:40:22.718Z,86.93
2018-03-07T08:41:32.957Z,86.93
2018-03-07T08:42:43.245Z,87.02
2018-03-07T08:43:53.386Z,86.74
2018-03-07T08:45:03.566Z,86.83
2018-03-07T08:46:13.796Z,87.02
2018-03-07T08:47:23.966Z,86.83
2018-03-07T08:48:34.190Z,86.74
2018-03-07T08:49:44.403Z,86.93
2018-03-07T08:50:54.668Z,86.64
2018-03-07T08:52:04.910Z,86.74
2018-03-07T08:53:14.776Z,87.02
2018-03-07T08:54:24.928Z,86.74
2018-03-07T08:55:35.057Z,86.93
2018-03-07T08:56:45.202Z,86.74
2018-03-07T08:57:55.385Z,86.74
2018-03-07T08:59:05.653Z,86.74
2018-03-07T09:00:15.829Z,86.74
2018-03-07T09:01:26.180Z,86.74
2018-03-07T09:02:36.460Z,86.93
2018-03-07T09:03:46.631Z,87.02
2018-03-07T09:04:56.818Z,86.93
2018-03-07T09:06:06.693Z,87.02
2018-03-07T09:07:16.929Z,86.74
2018-03-07T09:08:27.065Z,86.83
2018-03-07T09:09:37.286Z,86.83
2018-03-07T09:10:47.549Z,87.12
2018-03-07T09:11:57.854Z,86.93
2018-03-07T09:13:07.992Z,86.93
2018-03-07T09:14:18.188Z,86.74
2018-03-07T09:15:28.142Z,86.74
2018-03-07T09:16:38.609Z,86.93
2018-03-07T09:17:48.448Z,86.93
2018-03-07T09:18:58.663Z,86.83
2018-03-07T09:20:08.831Z,86.74
2018-03-07T09:21:18.989Z,86.83
2018-03-07T09:22:29.167Z,86.83
2018-03-07T09:23:39.324Z,86.64
2018-03-07T09:24:49.526Z,87.02
2018-03-07T09:25:59.809Z,86.64
2018-03-07T09:27:09.991Z,86.74
2018-03-07T09:28:20.237Z,86.74
2018-03-07T09:29:30.674Z,87.02
2018-03-07T09:30:40.504Z,87.02
2018-03-07T09:31:50.653Z,86.74
2018-03-07T09:33:00.791Z,86.93
2018-03-07T09:34:11.050Z,87.02
2018-03-07T09:35:21.279Z,86.83
2018-03-07T09:36:31.450Z,86.93
2018-03-07T09:37:41.650Z,87.21
2018-03-07T09:38:51.825Z,87.21
2018-03-07T09:40:02.008Z,86.74
2018-03-07T09:41:12.197Z,86.64
2018-03-07T09:42:22.380Z,86.45
2018-03-07T09:43:32.654Z,86.83
2018-03-07T09:44:42.631Z,86.45
2018-03-07T09:45:52.788Z,86.74
2018-03-07T09:47:03.074Z,86.83
2018-03-07T09:48:13.045Z,86.83
2018-03-07T09:49:23.209Z,86.64
2018-03-07T09:50:33.458Z,86.93
2018-03-07T09:51:43.736Z,86.64
2018-03-07T09:52:53.912Z,86.74
2018-03-07T09:54:03.863Z,86.64
2018-03-07T09:55:14.040Z,86.78
2018-03-07T09:56:23.845Z,86.74
2018-03-07T09:57:34.824Z,86.97
2018-03-07T09:58:44.391Z,86.78
2018-03-07T09:59:54.269Z,86.68
2018-03-07T10:01:04.279Z,86.78
2018-03-07T10:02:14.456Z,86.3
2018-03-07T10:03:24.329Z,86.87
2018-03-07T10:04:34.271Z,86.49
2018-03-07T10:05:44.477Z,86.4
2018-03-07T10:06:54.660Z,86.21
2018-03-07T10:08:04.906Z,86.3
2018-03-07T10:09:15.096Z,86.11
2018-03-07T10:10:25.258Z,86.11
2018-03-07T10:11:35.411Z,86.3
2018-03-07T10:12:45.196Z,86.21
2018-03-07T10:13:55.340Z,86.21
2018-03-07T10:15:05.499Z,86.21
2018-03-07T10:16:15.750Z,86.11
2018-03-07T10:17:25.886Z,86.11
2018-03-07T10:18:35.677Z,85.83
2018-03-07T10:19:45.833Z,85.64
2018-03-07T10:20:56.109Z,85.93
2018-03-07T10:22:06.259Z,85.83
2018-03-07T10:23:16.416Z,86.11
2018-03-07T10:24:26.206Z,85.64
2018-03-07T10:25:36.432Z,85.93
2018-03-07T10:26:46.577Z,85.83
2018-03-07T10:27:56.741Z,85.74
2018-03-07T10:29:06.905Z,85.93
2018-03-07T10:30:17.159Z,85.93
2018-03-07T10:31:27.308Z,85.83
2018-03-07T10:32:37.450Z,85.93
2018-03-07T10:33:47.602Z,85.74
2018-03-07T10:34:57.583Z,85.93
2018-03-07T10:36:07.876Z,86.11
2018-03-07T10:37:17.763Z,85.93
2018-03-07T10:38:27.899Z,85.74
2018-03-07T10:39:38.108Z,86.02
2018-03-07T10:40:48.283Z,85.83
2018-03-07T10:41:58.469Z,85.64
2018-03-07T10:43:08.693Z,85.36
2018-03-07T10:44:18.871Z,85.26
2018-03-07T10:45:29.157Z,85.17
2018-03-07T10:46:39.429Z,85.45
2018-03-07T10:47:49.633Z,85.64
2018-03-07T10:48:59.816Z,84.88
2018-03-07T10:50:10.054Z,84.98
2018-03-07T10:51:19.858Z,84.88
2018-03-07T10:52:30.002Z,84.98
2018-03-07T10:53:40.185Z,84.88
2018-03-07T10:54:50.090Z,85.07
2018-03-07T10:56:00.233Z,85.07
2018-03-07T10:57:10.133Z,85.07
2018-03-07T10:58:20.264Z,85.17
2018-03-07T10:59:30.416Z,85.07
2018-03-07T11:00:40.568Z,84.88
2018-03-07T11:01:50.735Z,85.17
2018-03-07T11:03:00.969Z,85.26
2018-03-07T11:04:11.257Z,84.78
2018-03-07T11:05:21.505Z,85.26
2018-03-07T11:06:31.701Z,85.26
2018-03-07T11:07:41.990Z,84.98
2018-03-07T11:08:52.191Z,85.17
2018-03-07T11:10:02.373Z,85.26
2018-03-07T11:11:12.406Z,85.26
2018-03-07T11:12:22.566Z,85.26
2018-03-07T11:13:32.740Z,84.98
2018-03-07T11:14:42.966Z,84.78
2018-03-07T11:15:53.128Z,85.07
2018-03-07T11:17:03.265Z,85.17
2018-03-07T11:18:13.428Z,84.98
2018-03-07T11:19:23.589Z,85.17
2018-03-07T11:20:33.738Z,85.17
2018-03-07T11:21:44.051Z,84.98
2018-03-07T11:22:54.359Z,85.17
2018-03-07T11:24:04.560Z,85.02
2018-03-07T11:25:14.738Z,84.88
2018-03-07T11:26:24.944Z,84.78
2018-03-07T11:27:35.093Z,84.69
2018-03-07T11:28:45.364Z,84.98
2018-03-07T11:29:55.580Z,84.69
2018-03-07T11:31:05.718Z,84.69
2018-03-07T11:32:15.942Z,84.74
2018-03-07T11:33:26.207Z,84.26
2018-03-07T11:34:36.458Z,84.64
2018-03-07T11:35:46.724Z,84.26
2018-03-07T11:36:56.892Z,84.36
2018-03-07T11:38:07.115Z,84.26
2018-03-07T11:39:17.309Z,83.88
2018-03-07T11:40:28.463Z,84.07
2018-03-07T11:41:38.809Z,84.07
2018-03-07T11:42:49.038Z,83.88
2018-03-07T11:43:59.245Z,84.26
2018-03-07T11:45:09.400Z,83.88
2018-03-07T11:46:19.525Z,83.78
2018-03-07T11:47:29.697Z,83.88
2018-03-07T11:48:39.882Z,83.97
2018-03-07T11:49:49.872Z,84.07
2018-03-07T11:50:59.846Z,84.45
2018-03-07T11:52:09.985Z,84.36
2018-03-07T11:53:20.150Z,84.17
2018-03-07T11:54:30.365Z,84.17
2018-03-07T11:55:40.503Z,84.26
2018-03-07T11:56:50.710Z,83.88
2018-03-07T11:58:00.842Z,83.78
2018-03-07T11:59:11.026Z,84.26
2018-03-07T12:00:21.191Z,83.88
2018-03-07T12:01:31.472Z,84.17
2018-03-07T12:02:41.630Z,84.36
2018-03-07T12:03:51.761Z,84.07
2018-03-07T12:05:01.939Z,83.88
2018-03-07T12:06:11.980Z,83.88
2018-03-07T12:07:22.139Z,83.88
2018-03-07T12:08:33.366Z,83.78
2018-03-07T12:09:43.560Z,83.69
2018-03-07T12:10:53.958Z,83.4
2018-03-07T12:12:04.135Z,83.92
2018-03-07T12:13:14.041Z,83.54
2018-03-07T12:14:24.216Z,83.16
2018-03-07T12:15:34.426Z,83.45
2018-03-07T12:16:44.661Z,83.16
2018-03-07T12:17:54.673Z,82.97
2018-03-07T12:19:04.899Z,82.5
2018-03-07T12:20:15.040Z,82.78
2018-03-07T12:21:25.253Z,83.16
2018-03-07T12:22:35.501Z,83.07
2018-03-07T12:23:45.664Z,82.97
2018-03-07T12:24:55.838Z,82.78
2018-03-07T12:26:05.990Z,82.88
2018-03-07T12:27:16.024Z,82.5
2018-03-07T12:28:26.275Z,82.31
2018-03-07T12:29:36.548Z,82.21
2018-03-07T12:30:46.700Z,81.93
2018-03-07T12:31:56.378Z,81.74
2018-03-07T12:33:06.622Z,82.21
2018-03-07T12:34:16.821Z,82.12
2018-03-07T12:35:27.003Z,82.03
2018-03-07T12:36:37.338Z,82.31
2018-03-07T12:37:47.480Z,82.31
2018-03-07T12:38:57.684Z,82.31
2018-03-07T12:40:07.874Z,82.31
2018-03-07T12:41:18.161Z,82.03
2018-03-07T12:42:28.353Z,82.4
2018-03-07T12:43:38.187Z,81.84
2018-03-07T12:44:49.068Z,82.21
2018-03-07T12:45:59.026Z,82.21
2018-03-07T12:47:09.257Z,82.03
2018-03-07T12:48:19.466Z,82.03
2018-03-07T12:49:29.613Z,82.03
2018-03-07T12:50:39.508Z,81.26
2018-03-07T12:51:49.444Z,81.17
2018-03-07T12:52:59.639Z,81.68
2018-03-07T12:54:09.349Z,81.36
2018-03-07T12:55:19.554Z,80.98
2018-03-07T12:56:29.698Z,81.21
2018-03-07T12:57:39.626Z,81.12
2018-03-07T12:58:49.570Z,80.93
2018-03-07T12:59:59.730Z,80.83
2018-03-07T13:01:09.879Z,80.83
2018-03-07T13:02:20.042Z,81.12
2018-03-07T13:03:30.216Z,81.02
2018-03-07T13:04:40.384Z,80.35
2018-03-07T13:05:50.595Z,80.35
2018-03-07T13:07:00.776Z,80.64
2018-03-07T13:08:10.923Z,80.55
2018-03-07T13:09:21.057Z,80.64
2018-03-07T13:10:31.311Z,80.07
2018-03-07T13:11:41.509Z,80.16
2018-03-07T13:12:51.741Z,80.16
2018-03-07T13:14:01.975Z,79.88
2018-03-07T13:15:12.304Z,79.88
2018-03-07T13:16:22.490Z,80.07
2018-03-07T13:17:32.728Z,79.88
2018-03-07T13:18:42.892Z,79.79
2018-03-07T13:19:53.075Z,79.79
2018-03-07T13:21:03.336Z,79.69
2018-03-07T13:22:13.585Z,79.79
2018-03-07T13:23:23.509Z,79.79
2018-03-07T13:24:33.664Z,79.97
2018-03-07T13:25:43.998Z,80.16
2018-03-07T13:26:54.205Z,80.07
2018-03-07T13:28:04.123Z,80.07
2018-03-07T13:29:14.389Z,79.97
2018-03-07T13:30:24.652Z,80.07
2018-03-07T13:31:34.541Z,80.16
2018-03-07T13:32:44.733Z,79.88
2018-03-07T13:33:54.925Z,80.03
2018-03-07T13:35:05.096Z,80.32
2018-03-07T13:36:14.969Z,80.22
2018-03-07T13:37:24.299Z,80.55
2018-03-07T13:38:33.924Z,80.51
2018-03-07T13:39:44.008Z,80.6
2018-03-07T13:40:54.320Z,80.69
2018-03-07T13:42:04.157Z,80.6
2018-03-07T13:43:14.079Z,80.6
2018-03-07T13:44:24.343Z,80.41
2018-03-07T13:45:34.547Z,80.69
2018-03-07T13:46:44.728Z,80.41
2018-03-07T13:47:54.983Z,80.51
2018-03-07T13:49:05.289Z,80.13
2018-03-07T13:50:15.561Z,80.22
2018-03-07T13:51:25.713Z,80.51
2018-03-07T13:52:35.881Z,80.51
2018-03-07T13:53:46.073Z,80.03
2018-03-07T13:54:56.325Z,80.32
2018-03-07T13:56:06.574Z,80.32
2018-03-07T13:57:16.740Z,80.69
2018-03-07T13:58:26.921Z,80.41
2018-03-07T13:59:37.141Z,80.51
2018-03-07T14:00:47.301Z,80.41
2018-03-07T14:01:57.196Z,79.94
2018-03-07T14:03:07.486Z,80.13
2018-03-07T14:04:17.711Z,80.13
2018-03-07T14:05:28.036Z,80.03
2018-03-07T14:06:38.257Z,80.13
2018-03-07T14:07:48.482Z,79.84
2018-03-07T14:08:58.646Z,80.13
2018-03-07T14:10:08.832Z,80.32
2018-03-07T14:11:19.018Z,80.13
2018-03-07T14:12:29.186Z,79.55
2018-03-07T14:13:39.469Z,79.65
2018-03-07T14:14:49.628Z,79.65
2018-03-07T14:15:59.820Z,79.65
2018-03-07T14:17:10.089Z,79.84
2018-03-07T14:18:20.311Z,79.55
2018-03-07T14:19:30.517Z,79.46
2018-03-07T14:20:40.697Z,79.46
2018-03-07T14:21:50.860Z,79.74
2018-03-07T14:23:01.145Z,79.55
2018-03-07T14:24:11.447Z,79.84
2018-03-07T14:25:21.659Z,79.74
2018-03-07T14:26:32.009Z,79.36
2018-03-07T14:27:42.374Z,79.55
2018-03-07T14:28:52.075Z,79.74
2018-03-07T14:30:02.310Z,79.94
2018-03-07T14:31:12.113Z,79.08
2018-03-07T14:32:22.375Z,79.36
2018-03-07T14:33:32.675Z,79.27
2018-03-07T14:34:43.063Z,78.99
2018-03-07T14:35:53.206Z,79.08
2018-03-07T14:37:02.811Z,79.08
2018-03-07T14:38:13.033Z,78.99
2018-03-07T14:39:22.935Z,78.7
2018-03-07T14:40:33.112Z,78.8
2018-03-07T14:41:43.286Z,78.7
2018-03-07T14:42:54.402Z,78.7
2018-03-07T14:44:04.724Z,78.61
2018-03-07T14:45:14.930Z,78.7
2018-03-07T14:46:25.164Z,78.51
2018-03-07T14:47:36.323Z,78.61
2018-03-07T14:48:46.529Z,78.8
2018-03-07T14:49:56.718Z,78.8
2018-03-07T14:51:06.667Z,78.89
2018-03-07T14:52:16.852Z,78.7
2018-03-07T14:53:26.757Z,78.61
2018-03-07T14:54:36.319Z,78.51
2018-03-07T14:55:46.500Z,78.99
2018-03-07T14:56:57.280Z,78.61
2018-03-07T14:58:08.077Z,78.8
2018-03-07T14:59:17.671Z,78.7
2018-03-07T15:00:27.635Z,78.7
2018-03-07T15:01:37.442Z,78.7
2018-03-07T15:02:47.734Z,78.8
2018-03-07T15:03:57.636Z,78.8
2018-03-07T15:05:07.297Z,78.61